createdAt,value
2022-10-09T00:00:15.258Z,1013.77
2022-10-09T00:01:15.213Z,1013.71
2022-10-09T00:02:15.281Z,1013.75
2022-10-09T00:03:15.223Z,1013.74
2022-10-09T00:04:15.315Z,1013.69
2022-10-09T00:05:15.227Z,1013.7
2022-10-09T00:06:15.268Z,1013.67
2022-10-09T00:07:15.124Z,1013.66
2022-10-09T00:08:15.272Z,1013.66
2022-10-09T00:09:15.133Z,1013.7
2022-10-09T00:10:15.184Z,1013.69
2022-10-09T00:11:15.222Z,1013.67
2022-10-09T00:12:15.119Z,1013.72
2022-10-09T00:13:15.299Z,1013.61
2022-10-09T00:14:15.080Z,1013.67
2022-10-09T00:15:15.057Z,1013.65
2022-10-09T00:16:15.197Z,1013.61
2022-10-09T00:17:15.028Z,1013.58
2022-10-09T00:18:15.151Z,1013.62
2022-10-09T00:19:15.063Z,1013.61
2022-10-09T00:20:14.993Z,1013.63
2022-10-09T00:21:15.012Z,1013.66
2022-10-09T00:22:15.079Z,1013.7
2022-10-09T00:23:14.985Z,1013.77
2022-10-09T00:24:14.969Z,1013.72
2022-10-09T00:25:15.068Z,1013.76
2022-10-09T00:26:14.921Z,1013.74
2022-10-09T00:27:14.952Z,1013.78
2022-10-09T00:28:14.943Z,1013.76
2022-10-09T00:29:14.903Z,1013.8
2022-10-09T00:30:14.889Z,1013.77
2022-10-09T00:31:14.882Z,1013.81
2022-10-09T00:32:14.905Z,1013.82
2022-10-09T00:33:14.871Z,1013.83
2022-10-09T00:34:14.858Z,1013.82
2022-10-09T00:35:14.891Z,1013.8
2022-10-09T00:36:14.879Z,1013.81
2022-10-09T00:37:14.833Z,1013.85
2022-10-09T00:38:15.897Z,1013.82
2022-10-09T00:39:14.798Z,1013.8
2022-10-09T00:40:14.831Z,1013.8
2022-10-09T00:41:14.802Z,1013.81
2022-10-09T00:42:14.816Z,1013.81
2022-10-09T00:43:14.768Z,1013.82
2022-10-09T00:44:14.746Z,1013.78
2022-10-09T00:45:14.742Z,1013.82
2022-10-09T00:46:14.725Z,1013.77
2022-10-09T00:47:14.722Z,1013.77
2022-10-09T00:48:14.690Z,1013.86
2022-10-09T00:49:14.699Z,1013.82
2022-10-09T00:50:14.670Z,1013.83
2022-10-09T00:51:14.650Z,1013.83
2022-10-09T00:52:14.651Z,1013.79
2022-10-09T00:53:14.635Z,1013.79
2022-10-09T00:54:14.634Z,1013.72
2022-10-09T00:55:14.641Z,1013.77
2022-10-09T00:56:14.604Z,1013.8
2022-10-09T00:57:14.650Z,1013.82
2022-10-09T00:58:14.621Z,1013.84
2022-10-09T00:59:14.622Z,1013.84
2022-10-09T01:00:14.690Z,1013.92
2022-10-09T01:01:14.561Z,1013.99
2022-10-09T01:02:14.558Z,1013.94
2022-10-09T01:03:14.540Z,1013.95
2022-10-09T01:04:14.684Z,1013.92
2022-10-09T01:05:15.589Z,1013.91
2022-10-09T01:06:14.588Z,1013.95
2022-10-09T01:07:15.567Z,1013.92
2022-10-09T01:08:14.559Z,1013.93
2022-10-09T01:09:15.491Z,1013.94
2022-10-09T01:10:14.474Z,1013.97
2022-10-09T01:11:14.459Z,1013.94
2022-10-09T01:12:14.471Z,1013.93
2022-10-09T01:13:14.442Z,1013.95
2022-10-09T01:14:14.427Z,1013.96
2022-10-09T01:15:14.476Z,1013.97
2022-10-09T01:16:14.445Z,1013.89
2022-10-09T01:17:14.407Z,1013.91
2022-10-09T01:18:14.419Z,1013.92
2022-10-09T01:19:14.376Z,1013.9
2022-10-09T01:20:14.388Z,1013.87
2022-10-09T01:21:14.372Z,1013.92
2022-10-09T01:22:14.412Z,1013.87
2022-10-09T01:23:14.345Z,1013.91
2022-10-09T01:24:16.204Z,1013.87
2022-10-09T01:25:14.323Z,1013.92
2022-10-09T01:26:14.311Z,1013.91
2022-10-09T01:27:14.301Z,1013.89
2022-10-09T01:28:14.299Z,1013.92
2022-10-09T01:29:14.289Z,1013.86
2022-10-09T01:30:14.281Z,1013.88
2022-10-09T01:31:15.251Z,1013.88
2022-10-09T01:32:14.238Z,1013.87
2022-10-09T01:33:14.221Z,1013.86
2022-10-09T01:34:14.301Z,1013.81
2022-10-09T01:35:14.217Z,1013.82
2022-10-09T01:36:15.212Z,1013.81
2022-10-09T01:37:14.255Z,1013.84
2022-10-09T01:38:14.174Z,1013.81
2022-10-09T01:39:14.229Z,1013.84
2022-10-09T01:40:15.170Z,1013.83
2022-10-09T01:41:14.182Z,1013.82
2022-10-09T01:42:14.164Z,1013.8
2022-10-09T01:43:14.185Z,1013.8
2022-10-09T01:44:14.126Z,1013.81
2022-10-09T01:45:14.105Z,1013.79
2022-10-09T01:46:14.146Z,1013.81
2022-10-09T01:47:14.117Z,1013.83
2022-10-09T01:48:15.079Z,1013.86
2022-10-09T01:49:14.091Z,1013.82
2022-10-09T01:50:14.063Z,1013.82
2022-10-09T01:51:14.043Z,1013.79
2022-10-09T01:52:14.037Z,1013.84
2022-10-09T01:53:14.021Z,1013.81
2022-10-09T01:54:14.005Z,1013.81
2022-10-09T01:55:13.987Z,1013.77
2022-10-09T01:56:13.986Z,1013.77
2022-10-09T01:57:13.975Z,1013.75
2022-10-09T01:58:13.981Z,1013.73
2022-10-09T01:59:13.934Z,1013.8
2022-10-09T02:00:13.943Z,1013.77
2022-10-09T02:01:13.933Z,1013.75
2022-10-09T02:02:13.926Z,1013.8
2022-10-09T02:03:13.933Z,1013.78
2022-10-09T02:04:13.912Z,1013.77
2022-10-09T02:05:13.918Z,1013.79
2022-10-09T02:06:13.899Z,1013.74
2022-10-09T02:07:13.871Z,1013.8
2022-10-09T02:08:13.870Z,1013.74
2022-10-09T02:09:13.866Z,1013.85
2022-10-09T02:10:13.885Z,1013.76
2022-10-09T02:11:13.827Z,1013.8
2022-10-09T02:12:13.847Z,1013.72
2022-10-09T02:13:13.856Z,1013.78
2022-10-09T02:14:13.803Z,1013.78
2022-10-09T02:15:13.866Z,1013.75
2022-10-09T02:16:21.502Z,1013.77
2022-10-09T02:17:13.795Z,1013.66
2022-10-09T02:18:13.782Z,1013.68
2022-10-09T02:19:13.798Z,1013.73
2022-10-09T02:20:13.731Z,1013.74
2022-10-09T02:21:13.723Z,1013.79
2022-10-09T02:22:13.719Z,1013.76
2022-10-09T02:23:13.702Z,1013.74
2022-10-09T02:24:13.721Z,1013.76
2022-10-09T02:25:14.684Z,1013.73
2022-10-09T02:26:13.667Z,1013.74
2022-10-09T02:27:13.667Z,1013.81
2022-10-09T02:28:13.636Z,1013.75
2022-10-09T02:29:13.623Z,1013.72
2022-10-09T02:30:13.618Z,1013.74
2022-10-09T02:31:13.647Z,1013.7
2022-10-09T02:32:13.616Z,1013.68
2022-10-09T02:33:13.585Z,1013.69
2022-10-09T02:34:13.570Z,1013.75
2022-10-09T02:35:13.572Z,1013.73
2022-10-09T02:36:13.545Z,1013.69
2022-10-09T02:37:13.538Z,1013.66
2022-10-09T02:38:13.535Z,1013.67
2022-10-09T02:39:13.516Z,1013.64
2022-10-09T02:40:13.519Z,1013.66
2022-10-09T02:41:13.499Z,1013.75
2022-10-09T02:42:13.486Z,1013.75
2022-10-09T02:43:13.489Z,1013.66
2022-10-09T02:44:13.462Z,1013.66
2022-10-09T02:45:13.488Z,1013.65
2022-10-09T02:46:13.482Z,1013.7
2022-10-09T02:47:13.508Z,1013.68
2022-10-09T02:48:13.512Z,1013.72
2022-10-09T02:49:13.475Z,1013.72
2022-10-09T02:50:13.417Z,1013.63
2022-10-09T02:51:13.391Z,1013.78
2022-10-09T02:52:13.382Z,1013.68
2022-10-09T02:53:13.395Z,1013.68
2022-10-09T02:54:13.370Z,1013.68
2022-10-09T02:55:13.354Z,1013.69
2022-10-09T02:56:13.337Z,1013.74
2022-10-09T02:57:13.345Z,1013.73
2022-10-09T02:58:13.332Z,1013.75
2022-10-09T02:59:13.331Z,1013.74
2022-10-09T03:00:13.319Z,1013.71
2022-10-09T03:01:13.291Z,1013.75
2022-10-09T03:02:13.282Z,1013.75
2022-10-09T03:03:13.276Z,1013.77
2022-10-09T03:04:13.261Z,1013.77
2022-10-09T03:05:13.263Z,1013.67
2022-10-09T03:06:13.248Z,1013.68
2022-10-09T03:07:13.225Z,1013.72
2022-10-09T03:08:13.228Z,1013.77
2022-10-09T03:09:13.217Z,1013.77
2022-10-09T03:10:13.203Z,1013.77
2022-10-09T03:11:13.195Z,1013.75
2022-10-09T03:12:13.199Z,1013.77
2022-10-09T03:13:13.180Z,1013.8
2022-10-09T03:14:13.154Z,1013.78
2022-10-09T03:15:13.143Z,1013.81
2022-10-09T03:16:13.143Z,1013.76
2022-10-09T03:17:13.147Z,1013.81
2022-10-09T03:18:13.111Z,1013.79
2022-10-09T03:19:13.146Z,1013.73
2022-10-09T03:20:13.094Z,1013.78
2022-10-09T03:21:13.083Z,1013.77
2022-10-09T03:22:13.076Z,1013.72
2022-10-09T03:23:13.067Z,1013.75
2022-10-09T03:24:13.101Z,1013.85
2022-10-09T03:25:13.075Z,1013.76
2022-10-09T03:26:13.049Z,1013.78
2022-10-09T03:27:13.040Z,1013.8
2022-10-09T03:28:13.005Z,1013.74
2022-10-09T03:29:13.003Z,1013.74
2022-10-09T03:30:12.990Z,1013.77
2022-10-09T03:31:12.973Z,1013.75
2022-10-09T03:32:13.007Z,1013.79
2022-10-09T03:33:12.960Z,1013.74
2022-10-09T03:34:12.954Z,1013.76
2022-10-09T03:35:12.937Z,1013.78
2022-10-09T03:36:12.924Z,1013.78
2022-10-09T03:37:12.926Z,1013.78
2022-10-09T03:38:12.905Z,1013.73
2022-10-09T03:39:12.891Z,1013.79
2022-10-09T03:40:12.904Z,1013.82
2022-10-09T03:41:12.869Z,1013.82
2022-10-09T03:42:12.857Z,1013.84
2022-10-09T03:43:12.857Z,1013.81
2022-10-09T03:44:12.840Z,1013.84
2022-10-09T03:45:12.849Z,1013.86
2022-10-09T03:46:12.833Z,1013.93
2022-10-09T03:47:12.816Z,1013.9
2022-10-09T03:48:12.822Z,1013.93
2022-10-09T03:49:12.797Z,1013.87
2022-10-09T03:50:12.775Z,1013.92
2022-10-09T03:51:12.769Z,1013.91
2022-10-09T03:52:12.761Z,1013.95
2022-10-09T03:53:12.755Z,1013.92
2022-10-09T03:54:12.753Z,1013.85
2022-10-09T03:55:12.733Z,1013.94
2022-10-09T03:56:12.712Z,1013.92
2022-10-09T03:57:12.754Z,1013.92
2022-10-09T03:58:12.695Z,1013.92
2022-10-09T03:59:12.708Z,1013.86
2022-10-09T04:00:12.683Z,1013.89
2022-10-09T04:01:12.673Z,1013.88
2022-10-09T04:02:12.652Z,1013.84
2022-10-09T04:03:12.647Z,1013.88
2022-10-09T04:04:12.643Z,1013.87
2022-10-09T04:05:12.634Z,1013.82
2022-10-09T04:06:12.611Z,1013.85
2022-10-09T04:07:12.619Z,1013.89
2022-10-09T04:08:12.588Z,1013.85
2022-10-09T04:09:12.586Z,1013.83
2022-10-09T04:10:12.588Z,1013.85
2022-10-09T04:11:12.559Z,1013.84
2022-10-09T04:12:12.545Z,1013.83
2022-10-09T04:13:12.548Z,1013.82
2022-10-09T04:14:12.536Z,1013.79
2022-10-09T04:15:12.521Z,1013.78
2022-10-09T04:16:12.541Z,1013.89
2022-10-09T04:17:12.506Z,1013.83
2022-10-09T04:18:12.510Z,1013.8
2022-10-09T04:19:12.516Z,1013.84
2022-10-09T04:20:12.462Z,1013.82
2022-10-09T04:21:12.483Z,1013.77
2022-10-09T04:22:12.471Z,1013.77
2022-10-09T04:23:12.473Z,1013.77
2022-10-09T04:24:12.458Z,1013.74
2022-10-09T04:25:12.424Z,1013.76
2022-10-09T04:26:12.399Z,1013.77
2022-10-09T04:27:12.386Z,1013.72
2022-10-09T04:28:12.518Z,1013.77
2022-10-09T04:29:12.374Z,1013.79
2022-10-09T04:30:12.375Z,1013.78
2022-10-09T04:31:12.359Z,1013.78
2022-10-09T04:32:12.339Z,1013.78
2022-10-09T04:33:12.331Z,1013.73
2022-10-09T04:34:12.328Z,1013.77
2022-10-09T04:35:12.330Z,1013.79
2022-10-09T04:36:12.302Z,1013.79
2022-10-09T04:37:12.300Z,1013.8
2022-10-09T04:38:12.279Z,1013.74
2022-10-09T04:39:12.288Z,1013.75
2022-10-09T04:40:12.277Z,1013.77
2022-10-09T04:41:12.253Z,1013.77
2022-10-09T04:42:12.238Z,1013.77
2022-10-09T04:43:12.219Z,1013.81
2022-10-09T04:44:12.213Z,1013.83
2022-10-09T04:45:12.215Z,1013.84
2022-10-09T04:46:12.201Z,1013.81
2022-10-09T04:47:12.231Z,1013.82
2022-10-09T04:48:12.171Z,1013.81
2022-10-09T04:49:12.156Z,1013.81
2022-10-09T04:50:12.147Z,1013.73
2022-10-09T04:51:12.148Z,1013.75
2022-10-09T04:52:12.127Z,1013.75
2022-10-09T04:53:12.127Z,1013.79
2022-10-09T04:54:12.107Z,1013.76
2022-10-09T04:55:12.093Z,1013.82
2022-10-09T04:56:12.085Z,1013.77
2022-10-09T04:57:12.093Z,1013.8
2022-10-09T04:58:12.075Z,1013.76
2022-10-09T04:59:12.076Z,1013.85
2022-10-09T05:00:12.047Z,1013.77
2022-10-09T05:01:12.043Z,1013.81
2022-10-09T05:02:12.037Z,1013.74
2022-10-09T05:03:12.017Z,1013.75
2022-10-09T05:04:12.016Z,1013.78
2022-10-09T05:05:12.025Z,1013.8
2022-10-09T05:06:11.992Z,1013.77
2022-10-09T05:07:11.974Z,1013.77
2022-10-09T05:08:11.969Z,1013.76
2022-10-09T05:09:11.954Z,1013.75
2022-10-09T05:10:11.945Z,1013.73
2022-10-09T05:11:11.930Z,1013.75
2022-10-09T05:12:11.916Z,1013.74
2022-10-09T05:13:11.905Z,1013.74
2022-10-09T05:14:11.925Z,1013.72
2022-10-09T05:15:11.887Z,1013.75
2022-10-09T05:16:11.880Z,1013.74
2022-10-09T05:17:11.880Z,1013.76
2022-10-09T05:18:11.860Z,1013.7
2022-10-09T05:19:11.849Z,1013.75
2022-10-09T05:20:11.831Z,1013.7
2022-10-09T05:21:11.854Z,1013.71
2022-10-09T05:22:11.807Z,1013.72
2022-10-09T05:23:11.827Z,1013.73
2022-10-09T05:24:11.790Z,1013.74
2022-10-09T05:25:11.780Z,1013.69
2022-10-09T05:26:11.782Z,1013.71
2022-10-09T05:27:11.768Z,1013.75
2022-10-09T05:28:11.758Z,1013.78
2022-10-09T05:29:11.769Z,1013.7
2022-10-09T05:30:11.770Z,1013.69
2022-10-09T05:31:11.725Z,1013.75
2022-10-09T05:32:11.723Z,1013.72
2022-10-09T05:33:11.701Z,1013.71
2022-10-09T05:34:11.694Z,1013.76
2022-10-09T05:35:11.685Z,1013.7
2022-10-09T05:36:11.671Z,1013.74
2022-10-09T05:37:11.656Z,1013.73
2022-10-09T05:38:11.652Z,1013.75
2022-10-09T05:39:11.639Z,1013.74
2022-10-09T05:40:11.650Z,1013.79
2022-10-09T05:41:11.624Z,1013.79
2022-10-09T05:42:11.606Z,1013.8
2022-10-09T05:43:11.600Z,1013.78
2022-10-09T05:44:11.589Z,1013.85
2022-10-09T05:45:11.595Z,1013.88
2022-10-09T05:46:12.572Z,1013.82
2022-10-09T05:47:11.576Z,1013.84
2022-10-09T05:48:11.544Z,1013.85
2022-10-09T05:49:11.532Z,1013.85
2022-10-09T05:50:11.551Z,1013.86
2022-10-09T05:51:11.536Z,1013.85
2022-10-09T05:52:11.521Z,1013.85
2022-10-09T05:53:11.501Z,1013.83
2022-10-09T05:54:11.479Z,1013.85
2022-10-09T05:55:11.485Z,1013.86
2022-10-09T05:56:11.475Z,1013.92
2022-10-09T05:57:11.477Z,1013.96
2022-10-09T05:58:11.452Z,1013.87
2022-10-09T05:59:11.451Z,1013.92
2022-10-09T06:00:11.420Z,1013.88
2022-10-09T06:01:11.411Z,1013.86
2022-10-09T06:02:11.416Z,1013.84
2022-10-09T06:03:11.398Z,1013.79
2022-10-09T06:04:11.439Z,1013.83
2022-10-09T06:05:11.380Z,1013.76
2022-10-09T06:06:11.399Z,1013.73
2022-10-09T06:07:11.357Z,1013.75
2022-10-09T06:08:11.411Z,1013.78
2022-10-09T06:09:11.325Z,1013.8
2022-10-09T06:10:11.339Z,1013.82
2022-10-09T06:11:11.330Z,1013.79
2022-10-09T06:12:12.400Z,1013.77
2022-10-09T06:13:11.295Z,1013.78
2022-10-09T06:14:11.272Z,1013.79
2022-10-09T06:15:11.267Z,1013.84
2022-10-09T06:16:11.262Z,1013.84
2022-10-09T06:17:11.257Z,1013.84
2022-10-09T06:18:11.247Z,1013.8
2022-10-09T06:19:11.233Z,1013.78
2022-10-09T06:20:11.329Z,1013.83
2022-10-09T06:21:11.223Z,1013.79
2022-10-09T06:22:11.390Z,1013.79
2022-10-09T06:23:11.345Z,1013.78
2022-10-09T06:24:11.196Z,1013.81
2022-10-09T06:25:11.283Z,1013.79
2022-10-09T06:26:12.194Z,1013.75
2022-10-09T06:27:11.155Z,1013.75
2022-10-09T06:28:11.210Z,1013.76
2022-10-09T06:29:11.222Z,1013.82
2022-10-09T06:30:11.288Z,1013.85
2022-10-09T06:31:11.109Z,1013.8
2022-10-09T06:32:12.093Z,1013.85
2022-10-09T06:33:11.095Z,1013.85
2022-10-09T06:34:11.112Z,1013.82
2022-10-09T06:35:11.076Z,1013.86
2022-10-09T06:36:11.127Z,1013.87
2022-10-09T06:37:11.042Z,1013.86
2022-10-09T06:38:11.038Z,1013.87
2022-10-09T06:39:11.026Z,1013.88
2022-10-09T06:40:11.013Z,1013.89
2022-10-09T06:41:11.024Z,1013.93
2022-10-09T06:42:10.984Z,1013.93
2022-10-09T06:43:11.001Z,1013.95
2022-10-09T06:44:10.964Z,1013.92
2022-10-09T06:45:10.964Z,1013.93
2022-10-09T06:46:10.968Z,1013.98
2022-10-09T06:47:10.934Z,1013.93
2022-10-09T06:48:10.973Z,1013.98
2022-10-09T06:49:10.911Z,1013.91
2022-10-09T06:50:10.962Z,1013.99
2022-10-09T06:51:10.886Z,1013.98
2022-10-09T06:52:10.903Z,1014.01
2022-10-09T06:53:10.980Z,1013.93
2022-10-09T06:54:11.869Z,1013.98
2022-10-09T06:55:10.939Z,1014.02
2022-10-09T06:56:10.851Z,1014
2022-10-09T06:57:10.843Z,1013.99
2022-10-09T06:58:11.851Z,1014.02
2022-10-09T06:59:10.821Z,1013.9
2022-10-09T07:00:10.795Z,1014.02
2022-10-09T07:01:10.794Z,1014.11
2022-10-09T07:02:10.993Z,1014.02
2022-10-09T07:03:10.795Z,1014.04
2022-10-09T07:04:10.792Z,1014
2022-10-09T07:05:10.765Z,1013.98
2022-10-09T07:06:10.739Z,1014
2022-10-09T07:07:10.741Z,1013.99
2022-10-09T07:08:10.716Z,1014.06
2022-10-09T07:09:10.701Z,1014.05
2022-10-09T07:10:10.716Z,1014.11
2022-10-09T07:11:10.714Z,1014.16
2022-10-09T07:12:10.689Z,1014.15
2022-10-09T07:13:10.660Z,1014.17
2022-10-09T07:14:10.679Z,1014.1
2022-10-09T07:15:10.655Z,1014.12
2022-10-09T07:16:10.646Z,1014.11
2022-10-09T07:17:10.633Z,1014.06
2022-10-09T07:18:10.688Z,1014.09
2022-10-09T07:19:10.603Z,1014.07
2022-10-09T07:20:10.591Z,1014.2
2022-10-09T07:21:10.580Z,1014.21
2022-10-09T07:22:10.617Z,1014.14
2022-10-09T07:23:10.567Z,1014.08
2022-10-09T07:24:10.547Z,1014.12
2022-10-09T07:25:10.578Z,1014.16
2022-10-09T07:26:10.567Z,1014.11
2022-10-09T07:27:10.522Z,1014.16
2022-10-09T07:28:10.511Z,1014.1
2022-10-09T07:29:10.500Z,1014.12
2022-10-09T07:30:10.478Z,1014.12
2022-10-09T07:31:10.479Z,1014.12
2022-10-09T07:32:10.458Z,1014.08
2022-10-09T07:33:10.457Z,1014.05
2022-10-09T07:34:10.445Z,1014.11
2022-10-09T07:35:10.444Z,1014.12
2022-10-09T07:36:10.426Z,1014.13
2022-10-09T07:37:10.408Z,1014.09
2022-10-09T07:38:10.398Z,1014.05
2022-10-09T07:39:10.400Z,1014.05
2022-10-09T07:40:10.372Z,1014
2022-10-09T07:41:10.405Z,1014.05
2022-10-09T07:42:10.505Z,1013.98
2022-10-09T07:43:10.370Z,1013.96
2022-10-09T07:44:10.336Z,1013.94
2022-10-09T07:45:10.445Z,1013.95
2022-10-09T07:46:11.325Z,1013.95
2022-10-09T07:47:10.311Z,1013.97
2022-10-09T07:48:10.284Z,1013.97
2022-10-09T07:49:10.288Z,1014.01
2022-10-09T07:50:10.293Z,1014
2022-10-09T07:51:10.377Z,1014.03
2022-10-09T07:52:10.264Z,1014.02
2022-10-09T07:53:10.249Z,1014.03
2022-10-09T07:54:10.258Z,1014.02
2022-10-09T07:55:10.233Z,1014.07
2022-10-09T07:56:10.201Z,1014.01
2022-10-09T07:57:10.241Z,1014.04
2022-10-09T07:58:10.206Z,1014.06
2022-10-09T07:59:10.198Z,1014.01
2022-10-09T08:00:10.161Z,1013.94
2022-10-09T08:01:10.164Z,1013.94
2022-10-09T08:02:10.150Z,1013.93
2022-10-09T08:03:10.192Z,1013.94
2022-10-09T08:04:10.165Z,1013.99
2022-10-09T08:05:10.136Z,1014
2022-10-09T08:06:10.100Z,1014.04
2022-10-09T08:07:10.087Z,1014.05
2022-10-09T08:08:10.090Z,1013.97
2022-10-09T08:09:10.082Z,1013.95
2022-10-09T08:10:10.058Z,1013.96
2022-10-09T08:11:10.044Z,1014.03
2022-10-09T08:12:10.084Z,1013.97
2022-10-09T08:13:10.031Z,1014.03
2022-10-09T08:14:10.008Z,1014.07
2022-10-09T08:15:10.022Z,1013.99
2022-10-09T08:16:10.108Z,1014.08
2022-10-09T08:17:11.003Z,1014.06
2022-10-09T08:18:09.988Z,1014.04
2022-10-09T08:19:09.954Z,1014.06
2022-10-09T08:20:09.944Z,1014.08
2022-10-09T08:21:09.940Z,1014.07
2022-10-09T08:22:09.972Z,1014.08
2022-10-09T08:23:17.569Z,1014.05
2022-10-09T08:24:18.596Z,1014.09
2022-10-09T08:26:20.385Z,1014.03
2022-10-09T08:27:29.934Z,1013.99
2022-10-09T08:28:27.885Z,1013.96
2022-10-09T08:29:28.891Z,1014
2022-10-09T08:30:29.565Z,1013.99
2022-10-09T08:31:27.867Z,1013.98
2022-10-09T08:32:27.864Z,1013.96
2022-10-09T08:33:27.872Z,1013.93
2022-10-09T08:35:37.849Z,1013.98
2022-10-09T08:36:45.480Z,1014
2022-10-09T08:38:50.502Z,1013.93
2022-10-09T08:39:58.070Z,1013.88
2022-10-09T08:43:17.222Z,1013.97
2022-10-09T08:44:25.800Z,1013.96
2022-10-09T08:47:44.226Z,1013.93
2022-10-09T08:48:54.088Z,1013.9
2022-10-09T08:51:04.093Z,1013.92
2022-10-09T08:52:14.164Z,1013.98
2022-10-09T08:53:11.806Z,1013.96
2022-10-09T08:54:12.689Z,1013.92
2022-10-09T08:55:12.870Z,1013.9
2022-10-09T08:58:24.603Z,1013.94
2022-10-09T08:59:25.443Z,1013.94
2022-10-09T09:00:34.858Z,1013.86
2022-10-09T09:03:51.759Z,1013.88
2022-10-09T09:05:00.402Z,1013.9
2022-10-09T09:06:01.169Z,1013.89
2022-10-09T09:07:02.454Z,1013.84
2022-10-09T09:11:55.981Z,1013.81
2022-10-09T09:14:07.603Z,1013.82
2022-10-09T09:15:08.528Z,1013.79
2022-10-09T09:16:15.104Z,1013.84
2022-10-09T09:17:16.195Z,1013.75
2022-10-09T09:19:17.913Z,1013.81
2022-10-09T09:20:26.585Z,1013.73
2022-10-09T09:22:28.296Z,1013.75
2022-10-09T09:23:37.164Z,1013.75
2022-10-09T09:24:28.248Z,1013.7
2022-10-09T09:25:28.304Z,1013.7
2022-10-09T09:26:37.430Z,1013.76
2022-10-09T09:28:49.702Z,1013.68
2022-10-09T09:29:49.675Z,1013.69
2022-10-09T09:30:49.654Z,1013.64
2022-10-09T09:31:49.636Z,1013.66
2022-10-09T09:32:49.642Z,1013.66
2022-10-09T09:33:49.640Z,1013.68
2022-10-09T09:34:49.640Z,1013.66
2022-10-09T09:35:49.643Z,1013.68
2022-10-09T09:36:49.582Z,1013.57
2022-10-09T09:37:49.574Z,1013.57
2022-10-09T09:38:49.573Z,1013.61
2022-10-09T09:40:52.469Z,1013.54
2022-10-09T09:41:49.548Z,1013.59
2022-10-09T09:42:49.520Z,1013.61
2022-10-09T09:43:49.520Z,1013.59
2022-10-09T09:44:49.507Z,1013.56
2022-10-09T09:45:49.504Z,1013.48
2022-10-09T09:46:49.493Z,1013.48
2022-10-09T09:47:49.493Z,1013.5
2022-10-09T09:48:49.457Z,1013.51
2022-10-09T09:49:49.451Z,1013.46
2022-10-09T09:50:49.447Z,1013.47
2022-10-09T09:51:49.456Z,1013.38
2022-10-09T09:52:49.421Z,1013.43
2022-10-09T09:53:49.415Z,1013.39
2022-10-09T09:54:49.409Z,1013.41
2022-10-09T09:55:49.470Z,1013.38
2022-10-09T09:56:49.388Z,1013.43
2022-10-09T09:57:49.428Z,1013.37
2022-10-09T09:58:49.375Z,1013.34
2022-10-09T09:59:49.343Z,1013.28
2022-10-09T10:00:49.369Z,1013.25
2022-10-09T10:01:49.338Z,1013.27
2022-10-09T10:02:49.312Z,1013.2
2022-10-09T10:03:49.343Z,1013.24
2022-10-09T10:04:49.299Z,1013.22
2022-10-09T10:05:49.274Z,1013.21
2022-10-09T10:06:50.300Z,1013.19
2022-10-09T10:07:49.267Z,1013.22
2022-10-09T10:08:49.259Z,1013.19
2022-10-09T10:09:49.233Z,1013.2
2022-10-09T10:10:49.231Z,1013.17
2022-10-09T10:11:49.239Z,1013.15
2022-10-09T10:12:49.213Z,1013.16
2022-10-09T10:13:49.204Z,1013.2
2022-10-09T10:14:49.213Z,1013.13
2022-10-09T10:15:49.171Z,1013.14
2022-10-09T10:16:49.197Z,1013.1
2022-10-09T10:17:49.151Z,1013.15
2022-10-09T10:18:49.155Z,1013.14
2022-10-09T10:19:49.147Z,1013.11
2022-10-09T10:20:49.127Z,1013.12
2022-10-09T10:21:49.116Z,1013.12
2022-10-09T10:22:49.111Z,1013.07
2022-10-09T10:23:49.158Z,1013.08
2022-10-09T10:24:49.077Z,1013.14
2022-10-09T10:25:49.072Z,1013.12
2022-10-09T10:26:49.060Z,1013.16
2022-10-09T10:27:49.046Z,1013.03
2022-10-09T10:28:49.050Z,1013.09
2022-10-09T10:29:49.045Z,1013.05
2022-10-09T10:30:49.010Z,1013.03
2022-10-09T10:31:49.074Z,1012.98
2022-10-09T10:32:49.103Z,1012.96
2022-10-09T10:33:49.020Z,1012.98
2022-10-09T10:34:48.989Z,1013.01
2022-10-09T10:35:48.964Z,1012.99
2022-10-09T10:36:48.966Z,1012.96
2022-10-09T10:37:48.972Z,1012.98
2022-10-09T10:38:48.980Z,1012.85
2022-10-09T10:39:48.965Z,1012.88
2022-10-09T10:40:48.951Z,1012.93
2022-10-09T10:41:48.921Z,1012.87
2022-10-09T10:42:48.896Z,1012.85
2022-10-09T10:43:48.879Z,1012.81
2022-10-09T10:44:48.889Z,1012.85
2022-10-09T10:45:48.861Z,1012.79
2022-10-09T10:46:48.851Z,1012.82
2022-10-09T10:47:48.846Z,1012.79
2022-10-09T10:48:48.824Z,1012.77
2022-10-09T10:49:48.840Z,1012.79
2022-10-09T10:50:48.915Z,1012.77
2022-10-09T10:53:08.521Z,1012.96
2022-10-09T10:54:08.397Z,1013.01
2022-10-09T10:55:08.453Z,1012.92
2022-10-09T10:56:08.403Z,1012.93
2022-10-09T10:57:08.413Z,1012.87
2022-10-09T10:58:08.371Z,1012.87
2022-10-09T10:59:08.338Z,1012.87
2022-10-09T11:00:08.333Z,1012.85
2022-10-09T11:01:08.360Z,1012.88
2022-10-09T11:02:08.350Z,1012.84
2022-10-09T11:03:08.357Z,1012.85
2022-10-09T11:04:08.335Z,1012.86
2022-10-09T11:05:08.286Z,1012.84
2022-10-09T11:06:08.271Z,1012.88
2022-10-09T11:07:08.264Z,1012.9
2022-10-09T11:08:08.232Z,1012.92
2022-10-09T11:09:08.225Z,1012.83
2022-10-09T11:10:08.213Z,1012.93
2022-10-09T11:11:08.208Z,1012.81
2022-10-09T11:12:08.192Z,1012.89
2022-10-09T11:13:08.181Z,1012.86
2022-10-09T11:14:08.175Z,1012.8
2022-10-09T11:15:08.169Z,1012.9
2022-10-09T11:16:08.150Z,1012.82
2022-10-09T11:17:08.137Z,1012.79
2022-10-09T11:18:08.129Z,1012.84
2022-10-09T11:19:08.122Z,1012.82
2022-10-09T11:20:08.110Z,1012.8
2022-10-09T11:21:08.097Z,1012.84
2022-10-09T11:22:08.089Z,1012.8
2022-10-09T11:23:08.096Z,1012.8
2022-10-09T11:24:08.068Z,1012.81
2022-10-09T11:25:08.055Z,1012.68
2022-10-09T11:26:08.044Z,1012.78
2022-10-09T11:27:08.039Z,1012.71
2022-10-09T11:28:08.025Z,1012.65
2022-10-09T11:29:08.023Z,1012.59
2022-10-09T11:30:08.011Z,1012.65
2022-10-09T11:31:07.997Z,1012.6
2022-10-09T11:32:07.983Z,1012.65
2022-10-09T11:33:07.978Z,1012.62
2022-10-09T11:34:07.967Z,1012.67
2022-10-09T11:35:07.963Z,1012.64
2022-10-09T11:36:07.948Z,1012.54
2022-10-09T11:37:07.935Z,1012.58
2022-10-09T11:38:07.927Z,1012.54
2022-10-09T11:39:07.917Z,1012.53
2022-10-09T11:40:07.908Z,1012.5
2022-10-09T11:41:07.892Z,1012.59
2022-10-09T11:42:07.891Z,1012.5
2022-10-09T11:43:07.875Z,1012.59
2022-10-09T11:44:07.866Z,1012.55
2022-10-09T11:45:07.856Z,1012.49
2022-10-09T11:46:07.852Z,1012.43
2022-10-09T11:47:07.841Z,1012.43
2022-10-09T11:48:07.827Z,1012.38
2022-10-09T11:49:07.818Z,1012.46
2022-10-09T11:50:07.813Z,1012.43
2022-10-09T11:51:07.795Z,1012.42
2022-10-09T11:52:07.781Z,1012.39
2022-10-09T11:53:07.772Z,1012.43
2022-10-09T11:54:07.763Z,1012.36
2022-10-09T11:55:07.751Z,1012.33
2022-10-09T11:56:07.743Z,1012.3
2022-10-09T11:57:07.736Z,1012.39
2022-10-09T11:58:07.726Z,1012.26
2022-10-09T11:59:07.720Z,1012.36
2022-10-09T12:00:07.706Z,1012.27
2022-10-09T12:01:07.694Z,1012.25
2022-10-09T12:02:07.687Z,1012.28
2022-10-09T12:03:07.682Z,1012.28
2022-10-09T12:04:07.663Z,1012.23
2022-10-09T12:05:07.653Z,1012.19
2022-10-09T12:06:07.643Z,1012.17
2022-10-09T12:07:07.638Z,1012.09
2022-10-09T12:08:07.622Z,1012.13
2022-10-09T12:09:07.617Z,1012.14
2022-10-09T12:10:07.612Z,1012.12
2022-10-09T12:11:07.599Z,1012.11
2022-10-09T12:12:07.592Z,1012.08
2022-10-09T12:13:07.572Z,1012.04
2022-10-09T12:14:07.562Z,1012.01
2022-10-09T12:15:07.553Z,1012.05
2022-10-09T12:16:07.546Z,1012.03
2022-10-09T12:17:07.536Z,1011.95
2022-10-09T12:18:07.532Z,1011.94
2022-10-09T12:19:07.514Z,1011.98
2022-10-09T12:20:07.504Z,1011.89
2022-10-09T12:21:07.498Z,1011.95
2022-10-09T12:22:07.490Z,1011.95
2022-10-09T12:23:07.474Z,1011.86
2022-10-09T12:24:07.512Z,1011.91
2022-10-09T12:25:07.462Z,1011.88
2022-10-09T12:26:07.449Z,1011.85
2022-10-09T12:27:07.438Z,1011.94
2022-10-09T12:28:07.427Z,1011.86
2022-10-09T12:29:07.435Z,1011.87
2022-10-09T12:30:07.407Z,1011.92
2022-10-09T12:31:07.413Z,1011.84
2022-10-09T12:32:07.391Z,1011.74
2022-10-09T12:33:07.379Z,1011.74
2022-10-09T12:34:07.388Z,1011.58